Time;durP1;ratioP1;P1;durP2;ratioP2;P2;SDS_P1;SDS_P2;PMS_P1;PMS_P2;Temp;Humidity;BMP_temperature;BMP_pressure;BME280_temperature;BME280_humidity;BME280_pressure;Samples;Min_cycle;Max_cycle;Signal;HPM_P1;HPM_P2
2023/07/17 00:02:09;;;;;;;;;;;;;;;20.63;53.89;98141.03;5022008;28;19928;-65
2023/07/17 00:04:57;;;;;;;;;;;;;;;20.86;53.47;98136.25;5023916;28;20351;-61
2023/07/17 00:07:45;;;;;;;;;;;;;;;20.98;53.32;98137.97;5025613;28;20601;-60
2023/07/17 00:10:34;;;;;;;;;;;;;;;20.89;52.78;98143.78;5023150;28;19979;-59
2023/07/17 00:13:22;;;;;;;;;;;;;;;20.80;53.08;98151.53;5023998;28;19940;-67
2023/07/17 00:16:10;;;;;;;;;;;;;;;20.66;53.78;98157.63;5026234;28;19925;-62
2023/07/17 00:19:00;;;;;;;;;;;;;;;20.79;53.41;98152.72;5018891;28;19929;-62
2023/07/17 00:21:48;;;;;;;;;;;;;;;20.81;53.22;98153.13;5022750;28;19943;-65
2023/07/17 00:24:36;;;;;;;;;;;;;;;20.90;54.30;98161.94;5023237;28;19925;-59
2023/07/17 00:27:25;;;;;;;;;;;;;;;20.89;55.85;98159.56;5022066;28;19925;-59
2023/07/17 00:30:13;;;;;;;;;;;;;;;20.82;56.75;98160.22;5023287;28;20742;-59
2023/07/17 00:33:01;;;;;;;;;;;;;;;20.89;56.57;98171.41;5023977;28;19933;-63
2023/07/17 00:35:51;;;;;;;;;;;;;;;20.93;56.36;98177.78;5026210;28;20305;-66
2023/07/17 00:38:39;;;;;;;;;;;;;;;20.93;56.40;98176.97;5021500;28;19990;-62
2023/07/17 00:41:27;;;;;;;;;;;;;;;21.13;56.56;98172.91;5039573;28;19931;-61
2023/07/17 00:44:17;;;;;;;;;;;;;;;21.03;56.49;98172.75;5023954;28;19976;-64
2023/07/17 00:47:05;;;;;;;;;;;;;;;20.90;57.27;98167.47;5023691;28;19925;-62
2023/07/17 00:49:54;;;;;;;;;;;;;;;20.81;57.61;98168.91;5022629;28;20682;-60
2023/07/17 00:52:43;;;;;;;;;;;;;;;20.76;57.74;98166.47;5034416;28;19980;-65
2023/07/17 00:55:31;;;;;;;;;;;;;;;20.76;57.82;98167.25;5022872;28;20290;-62
2023/07/17 00:58:19;;;;;;;;;;;;;;;20.76;57.70;98160.94;5024360;28;19929;-63
2023/07/17 01:01:08;;;;;;;;;;;;;;;20.65;58.01;98172.63;5025277;28;20404;-65
2023/07/17 01:03:56;;;;;;;;;;;;;;;20.70;58.00;98168.75;5022384;28;20061;-62
2023/07/17 01:06:44;;;;;;;;;;;;;;;20.63;57.52;98174.16;5028465;28;19929;-63
2023/07/17 01:09:36;;;;;;;;;;;;;;;20.63;57.49;98174.16;5019520;28;19936;-62
2023/07/17 01:12:24;;;;;;;;;;;;;;;20.70;57.32;98184.53;5022282;28;19940;-61
2023/07/17 01:15:12;;;;;;;;;;;;;;;20.76;57.25;98175.53;5022099;28;20405;-59
2023/07/17 01:18:02;;;;;;;;;;;;;;;20.73;56.73;98164.47;5025066;28;19925;-61
2023/07/17 01:20:50;;;;;;;;;;;;;;;20.55;57.19;98177.97;5023045;28;20031;-62
2023/07/17 01:23:40;;;;;;;;;;;;;;;20.57;57.44;98175.66;5025938;28;19936;-59
2023/07/17 01:26:29;;;;;;;;;;;;;;;20.46;57.93;98164.44;5019622;28;19932;-60
2023/07/17 01:29:17;;;;;;;;;;;;;;;20.44;58.34;98160.44;5019760;28;19948;-61
2023/07/17 01:32:06;;;;;;;;;;;;;;;20.44;58.46;98163.19;5024292;28;19940;-63
2023/07/17 01:34:54;;;;;;;;;;;;;;;20.44;58.57;98163.19;5024164;28;19933;-60
2023/07/17 01:37:42;;;;;;;;;;;;;;;20.49;58.35;98163.69;5022687;28;19925;-61
2023/07/17 01:40:32;;;;;;;;;;;;;;;20.45;58.98;98175.81;5019183;28;20417;-58
2023/07/17 01:43:20;;;;;;;;;;;;;;;20.40;58.95;98165.91;5017229;28;19929;-62
2023/07/17 01:46:09;;;;;;;;;;;;;;;20.41;58.90;98182.09;5025088;28;19996;-62
2023/07/17 01:48:57;;;;;;;;;;;;;;;20.55;58.46;98180.72;5016648;28;20090;-61
2023/07/17 01:51:47;;;;;;;;;;;;;;;20.38;58.78;98174.53;5020697;28;19925;-66
2023/07/17 01:54:35;;;;;;;;;;;;;;;20.17;59.55;98160.38;5041574;28;19925;-61
2023/07/17 01:57:24;;;;;;;;;;;;;;;20.05;60.56;98157.81;5018440;28;19929;-62
2023/07/17 02:00:14;;;;;;;;;;;;;;;20.12;60.30;98147.69;5020579;28;19956;-61
2023/07/17 02:03:02;;;;;;;;;;;;;;;20.18;60.21;98144.63;5016649;28;20034;-68
2023/07/17 02:05:51;;;;;;;;;;;;;;;19.96;60.93;98162.78;5021693;28;21989;-60
2023/07/17 02:08:39;;;;;;;;;;;;;;;19.92;61.93;98157.22;5024858;28;20599;-62
2023/07/17 02:11:30;;;;;;;;;;;;;;;19.95;62.00;98166.72;5019297;28;19926;-62
2023/07/17 02:14:20;;;;;;;;;;;;;;;20.07;61.56;98169.28;5020836;28;20348;-63
2023/07/17 02:17:08;;;;;;;;;;;;;;;20.16;61.20;98183.63;5021220;28;19925;-62
2023/07/17 02:19:56;;;;;;;;;;;;;;;20.20;61.00;98172.66;5024727;28;19932;-65
2023/07/17 02:22:44;;;;;;;;;;;;;;;20.26;60.87;98176.69;5018151;28;19964;-59
2023/07/17 02:25:32;;;;;;;;;;;;;;;20.16;61.14;98183.63;5033322;28;19971;-61
2023/07/17 02:28:20;;;;;;;;;;;;;;;20.22;60.88;98187.66;5022798;28;19971;-65
2023/07/17 02:31:10;;;;;;;;;;;;;;;20.28;60.29;98199.97;5018455;28;19935;-60
2023/07/17 02:33:58;;;;;;;;;;;;;;;20.23;60.58;98208.56;5023424;28;19929;-59
2023/07/17 02:36:47;;;;;;;;;;;;;;;20.21;60.52;98204.59;5025267;28;19925;-61
2023/07/17 02:39:35;;;;;;;;;;;;;;;20.14;60.81;98206.06;5022502;28;19933;-62
2023/07/17 02:42:23;;;;;;;;;;;;;;;20.12;60.86;98205.63;5023215;28;19933;-63
2023/07/17 02:45:11;;;;;;;;;;;;;;;20.14;60.79;98210.78;5035086;28;19936;-62
2023/07/17 02:48:01;;;;;;;;;;;;;;;20.15;60.88;98231.69;5019417;28;19932;-60
2023/07/17 02:50:50;;;;;;;;;;;;;;;20.02;61.04;98224.72;5015216;28;19940;-61
2023/07/17 02:53:38;;;;;;;;;;;;;;;20.08;60.90;98215.81;5021395;28;19954;-60
2023/07/17 02:56:27;;;;;;;;;;;;;;;20.10;60.83;98221.75;5015140;28;19925;-59
2023/07/17 02:59:15;;;;;;;;;;;;;;;20.02;61.33;98233.00;5023857;28;20007;-61
2023/07/17 03:02:04;;;;;;;;;;;;;;;20.08;61.25;98220.50;5019264;28;19977;-68
2023/07/17 03:04:54;;;;;;;;;;;;;;;19.96;61.66;98198.63;5019006;28;19929;-60
2023/07/17 03:07:42;;;;;;;;;;;;;;;19.91;61.91;98198.94;5014918;28;19929;-62
2023/07/17 03:10:31;;;;;;;;;;;;;;;19.97;61.59;98205.72;5022533;28;19935;-62
2023/07/17 03:13:20;;;;;;;;;;;;;;;20.03;61.52;98207.06;5022353;28;19944;-59
2023/07/17 03:16:09;;;;;;;;;;;;;;;20.14;61.09;98202.53;5018137;28;19936;-60
2023/07/17 03:18:58;;;;;;;;;;;;;;;20.00;61.61;98216.03;5026256;28;19924;-63
2023/07/17 03:21:47;;;;;;;;;;;;;;;19.95;61.61;98213.59;5023031;28;20301;-63
2023/07/17 03:24:36;;;;;;;;;;;;;;;19.98;61.62;98205.38;5019360;28;20019;-63
2023/07/17 03:27:24;;;;;;;;;;;;;;;19.94;61.83;98214.75;5023194;28;19936;-61
2023/07/17 03:30:12;;;;;;;;;;;;;;;19.89;61.77;98208.38;5017910;28;19925;-62
2023/07/17 03:33:01;;;;;;;;;;;;;;;19.88;61.88;98206.78;5021099;28;19929;-63
2023/07/17 03:35:50;;;;;;;;;;;;;;;19.81;62.17;98217.66;5018446;28;19997;-62
2023/07/17 03:38:40;;;;;;;;;;;;;;;20.04;61.38;98205.88;5016439;28;19929;-61
2023/07/17 03:41:29;;;;;;;;;;;;;;;19.84;61.86;98194.88;5034307;28;20090;-60
2023/07/17 03:44:17;;;;;;;;;;;;;;;19.72;62.11;98192.28;5021144;28;19925;-60
2023/07/17 03:47:05;;;;;;;;;;;;;;;19.84;61.85;98191.31;5024188;28;19929;-65
2023/07/17 03:49:55;;;;;;;;;;;;;;;19.77;62.02;98216.00;5021760;28;19933;-63
2023/07/17 03:52:44;;;;;;;;;;;;;;;19.55;62.77;98234.06;5022618;28;19929;-60
2023/07/17 03:55:34;;;;;;;;;;;;;;;19.61;63.08;98240.91;5022584;28;19975;-60
2023/07/17 03:58:22;;;;;;;;;;;;;;;19.72;62.50;98233.66;5024159;28;20018;-62
2023/07/17 04:01:11;;;;;;;;;;;;;;;19.68;62.61;98235.53;5021503;28;20099;-59
2023/07/17 04:04:04;;;;;;;;;;;;;;;19.69;62.64;98237.13;5025131;28;19926;-61
2023/07/17 04:06:53;;;;;;;;;;;;;;;19.75;62.58;98240.38;5014232;28;19929;-62
2023/07/17 04:09:41;;;;;;;;;;;;;;;19.86;61.84;98231.13;5024102;28;20643;-58
2023/07/17 04:12:30;;;;;;;;;;;;;;;19.89;62.00;98219.41;5023192;28;20015;-65
2023/07/17 04:15:18;;;;;;;;;;;;;;;20.01;62.17;98228.66;5023276;28;20020;-62
2023/07/17 04:18:07;;;;;;;;;;;;;;;20.03;62.47;98231.88;5023316;28;20802;-60
2023/07/17 04:20:55;;;;;;;;;;;;;;;20.03;64.05;98235.41;5021534;28;20007;-62
2023/07/17 04:23:44;;;;;;;;;;;;;;;19.95;64.93;98230.91;5022241;28;20019;-64
2023/07/17 04:26:38;;;;;;;;;;;;;;;19.86;64.26;98219.31;5022738;28;19925;-61
2023/07/17 04:29:31;;;;;;;;;;;;;;;19.76;65.73;98226.25;5022096;28;19939;-62
2023/07/17 04:32:22;;;;;;;;;;;;;;;19.69;65.81;98226.09;5018481;28;19933;-64
2023/07/17 04:35:11;;;;;;;;;;;;;;;19.51;66.92;98222.16;5020887;28;19929;-61
2023/07/17 04:37:59;;;;;;;;;;;;;;;19.67;66.27;98233.94;5025176;28;20390;-63
2023/07/17 04:40:49;;;;;;;;;;;;;;;19.62;67.62;98259.03;5024582;28;19929;-60
2023/07/17 04:43:37;;;;;;;;;;;;;;;19.49;67.64;98272.09;5024397;28;19929;-60
2023/07/17 04:46:27;;;;;;;;;;;;;;;19.65;67.24;98263.00;5014757;28;19988;-61
2023/07/17 04:49:16;;;;;;;;;;;;;;;19.71;67.85;98262.38;5023551;28;19933;-60
2023/07/17 04:52:04;;;;;;;;;;;;;;;19.80;67.94;98289.69;5039531;28;20433;-61
2023/07/17 04:54:52;;;;;;;;;;;;;;;19.80;69.56;98320.81;5016827;28;19933;-62
2023/07/17 04:57:42;;;;;;;;;;;;;;;19.69;69.98;98308.78;5022365;28;19932;-65
2023/07/17 05:00:33;;;;;;;;;;;;;;;19.67;69.59;98288.25;5020572;28;19940;-63
2023/07/17 05:03:22;;;;;;;;;;;;;;;19.78;69.02;98289.28;5021038;28;20355;-61
2023/07/17 05:06:11;;;;;;;;;;;;;;;19.83;69.39;98300.81;5033554;28;19974;-65
2023/07/17 05:08:59;;;;;;;;;;;;;;;19.81;70.18;98289.34;5011296;28;19925;-63
2023/07/17 05:11:49;;;;;;;;;;;;;;;19.64;70.35;98281.50;5014796;28;19948;-62
2023/07/17 05:14:38;;;;;;;;;;;;;;;19.69;71.03;98292.25;5022859;28;20018;-61
2023/07/17 05:17:26;;;;;;;;;;;;;;;19.48;70.55;98280.72;5034325;28;19926;-62
2023/07/17 05:20:16;;;;;;;;;;;;;;;19.53;70.40;98294.22;5021085;28;19925;-61
2023/07/17 05:23:05;;;;;;;;;;;;;;;19.65;70.76;98288.59;5020346;28;19929;-59
2023/07/17 05:25:54;;;;;;;;;;;;;;;19.67;69.88;98289.06;5026787;28;19933;-61
2023/07/17 05:28:44;;;;;;;;;;;;;;;19.76;68.82;98289.66;5035940;28;19929;-62
2023/07/17 05:31:32;;;;;;;;;;;;;;;19.82;68.46;98290.16;5022143;28;19935;-65
2023/07/17 05:34:20;;;;;;;;;;;;;;;19.82;69.10;98290.94;5022393;28;19925;-60
2023/07/17 05:37:11;;;;;;;;;;;;;;;19.74;69.02;98285.66;5034452;28;20003;-60
2023/07/17 05:40:00;;;;;;;;;;;;;;;19.74;69.33;98286.44;5021264;28;19924;-62
2023/07/17 05:42:49;;;;;;;;;;;;;;;19.74;69.70;98285.66;5016805;28;20066;-62
2023/07/17 05:45:37;;;;;;;;;;;;;;;19.85;69.53;98286.66;5034135;28;20383;-63
2023/07/17 05:48:28;;;;;;;;;;;;;;;19.67;70.79;98288.25;5034978;28;20067;-60
2023/07/17 05:51:16;;;;;;;;;;;;;;;19.67;70.60;98291.81;5024412;28;20386;-60
2023/07/17 05:54:06;;;;;;;;;;;;;;;19.84;69.69;98283.09;5023461;28;19925;-59
2023/07/17 05:56:54;;;;;;;;;;;;;;;19.95;69.00;98293.56;5024479;28;19929;-61
2023/07/17 05:59:43;;;;;;;;;;;;;;;20.12;68.39;98298.59;5016825;28;20275;-61
2023/07/17 06:02:31;;;;;;;;;;;;;;;20.25;68.52;98300.06;5017547;28;19925;-59
2023/07/17 06:05:19;;;;;;;;;;;;;;;20.26;68.54;98304.41;5012136;28;19929;-64
2023/07/17 06:08:10;;;;;;;;;;;;;;;20.16;69.18;98299.47;5014329;28;19932;-62
2023/07/17 06:11:00;;;;;;;;;;;;;;;20.32;67.70;98302.94;5025842;28;19929;-61
2023/07/17 06:13:48;;;;;;;;;;;;;;;20.18;67.52;98308.19;5015408;28;19929;-62
2023/07/17 06:16:36;;;;;;;;;;;;;;;20.12;67.39;98309.66;5017936;28;20390;-62
2023/07/17 06:19:25;;;;;;;;;;;;;;;20.24;66.57;98317.78;5015100;28;19968;-62
2023/07/17 06:22:13;;;;;;;;;;;;;;;20.32;66.50;98316.72;5019790;28;19940;-65
2023/07/17 06:25:02;;;;;;;;;;;;;;;20.40;65.74;98320.44;5014320;28;19933;-61
2023/07/17 06:27:52;;;;;;;;;;;;;;;20.45;65.97;98325.63;5025154;28;19932;-60
2023/07/17 06:30:40;;;;;;;;;;;;;;;20.57;65.96;98325.50;5017739;28;19940;-62
2023/07/17 06:33:28;;;;;;;;;;;;;;;20.75;65.24;98325.81;5027297;28;19925;-60
2023/07/17 06:36:16;;;;;;;;;;;;;;;20.70;63.99;98325.31;5025266;28;19936;-61
2023/07/17 06:39:04;;;;;;;;;;;;;;;20.75;61.88;98328.56;5029615;28;19925;-65
2023/07/17 06:41:53;;;;;;;;;;;;;;;20.83;61.85;98326.75;5029594;28;20014;-59
2023/07/17 06:44:43;;;;;;;;;;;;;;;20.84;59.44;98320.03;5024974;28;19947;-62
2023/07/17 06:47:32;;;;;;;;;;;;;;;20.81;57.35;98327.09;5026217;28;19974;-60
2023/07/17 06:50:24;;;;;;;;;;;;;;;20.85;55.97;98322.44;5028519;28;19933;-63
2023/07/17 06:53:13;;;;;;;;;;;;;;;21.02;57.22;98320.31;5021087;28;19932;-59
2023/07/17 06:56:01;;;;;;;;;;;;;;;21.38;58.04;98321.72;5023552;28;19925;-61
2023/07/17 06:58:49;;;;;;;;;;;;;;;21.18;57.25;98321.78;5026322;28;19925;-65
2023/07/17 07:01:39;;;;;;;;;;;;;;;21.30;56.09;98322.75;5017356;28;19968;-60
2023/07/17 07:04:27;;;;;;;;;;;;;;;21.37;58.48;98320.91;5025488;28;19931;-60
2023/07/17 07:07:15;;;;;;;;;;;;;;;21.44;57.83;98326.53;5013255;28;19925;-62
2023/07/17 07:10:06;;;;;;;;;;;;;;;21.60;57.69;98325.56;5019294;28;19925;-62
2023/07/17 07:12:54;;;;;;;;;;;;;;;21.71;57.27;98323.75;5025206;28;19933;-65
2023/07/17 07:15:42;;;;;;;;;;;;;;;21.88;55.74;98325.94;5013979;28;19960;-63
2023/07/17 07:18:32;;;;;;;;;;;;;;;21.80;55.51;98324.25;5026682;28;19932;-60
2023/07/17 07:21:21;;;;;;;;;;;;;;;21.89;54.92;98326.72;5023805;28;19925;-59
2023/07/17 07:24:09;;;;;;;;;;;;;;;21.82;55.21;98318.34;5010361;28;19933;-61
2023/07/17 07:26:57;;;;;;;;;;;;;;;21.80;54.62;98317.94;5020786;28;20564;-61
2023/07/17 07:29:45;;;;;;;;;;;;;;;21.90;54.48;98328.34;5010914;28;19930;-62
2023/07/17 07:32:34;;;;;;;;;;;;;;;21.85;55.00;98328.66;5028218;28;19932;-63
2023/07/17 07:35:23;;;;;;;;;;;;;;;21.90;53.49;98331.91;5016445;28;19929;-60
2023/07/17 07:38:12;;;;;;;;;;;;;;;21.92;53.31;98332.31;5022931;28;19952;-62
2023/07/17 07:41:00;;;;;;;;;;;;;;;22.00;52.88;98337.91;5021714;28;20437;-61
2023/07/17 07:43:49;;;;;;;;;;;;;;;21.92;52.38;98339.81;5025676;28;19925;-60
2023/07/17 07:46:37;;;;;;;;;;;;;;;21.91;51.52;98347.31;5018057;28;19925;-59
2023/07/17 07:49:27;;;;;;;;;;;;;;;21.92;49.93;98348.09;5027086;28;19931;-60
2023/07/17 07:52:16;;;;;;;;;;;;;;;21.92;48.86;98348.09;5027871;28;19933;-63
2023/07/17 07:55:05;;;;;;;;;;;;;;;21.96;48.79;98343.44;5027448;28;19990;-63
2023/07/17 07:57:54;;;;;;;;;;;;;;;21.97;48.39;98347.78;5027012;28;19983;-61
2023/07/17 08:00:42;;;;;;;;;;;;;;;22.02;47.50;98341.13;5028346;28;20067;-65
2023/07/17 08:03:31;;;;;;;;;;;;;;;22.19;47.80;98346.88;5026899;28;20378;-61
2023/07/17 08:06:23;;;;;;;;;;;;;;;22.32;49.23;98343.84;5025151;28;19929;-59
2023/07/17 08:09:13;;;;;;;;;;;;;;;22.34;48.16;98339.56;5019906;28;19929;-59
2023/07/17 08:12:01;;;;;;;;;;;;;;;22.48;47.18;98333.38;5028376;28;19948;-62
2023/07/17 08:14:50;;;;;;;;;;;;;;;22.49;47.93;98338.53;5024998;28;19932;-60
2023/07/17 08:17:38;;;;;;;;;;;;;;;22.57;47.65;98339.38;5027342;28;19925;-62
2023/07/17 08:20:27;;;;;;;;;;;;;;;22.70;47.16;98342.69;5024467;28;19925;-63
2023/07/17 08:23:24;;;;;;;;;;;;;;;22.81;47.67;98348.31;5027165;28;19929;-62
2023/07/17 08:26:14;;;;;;;;;;;;;;;22.97;47.04;98346.91;5026523;28;20045;-60
2023/07/17 08:29:03;;;;;;;;;;;;;;;23.04;47.05;98337.88;5021540;28;19926;-60
2023/07/17 08:31:52;;;;;;;;;;;;;;;23.09;46.92;98342.25;5030013;28;19932;-62
2023/07/17 08:34:40;;;;;;;;;;;;;;;23.16;46.71;98347.84;5032844;28;19929;-60
2023/07/17 08:37:28;;;;;;;;;;;;;;;23.05;46.21;98342.22;5027780;28;19925;-61
2023/07/17 08:40:16;;;;;;;;;;;;;;;23.19;46.14;98345.13;5030961;28;19933;-62
2023/07/17 08:43:06;;;;;;;;;;;;;;;23.36;46.12;98340.88;5011427;28;19932;-59
2023/07/17 08:45:57;;;;;;;;;;;;;;;23.43;43.98;98340.91;5025357;28;20028;-62
2023/07/17 08:48:48;;;;;;;;;;;;;;;23.49;44.83;98339.38;5027321;28;19929;-62
2023/07/17 08:51:36;;;;;;;;;;;;;;;23.49;43.28;98333.84;5018066;28;19933;-62
2023/07/17 08:54:24;;;;;;;;;;;;;;;23.45;42.43;98337.78;5022869;28;19932;-63
2023/07/17 08:57:17;;;;;;;;;;;;;;;23.53;43.88;98345.72;5025401;28;19936;-61
2023/07/17 09:00:08;;;;;;;;;;;;;;;23.63;42.15;98337.91;5021237;28;20440;-62
2023/07/17 09:02:57;;;;;;;;;;;;;;;23.61;41.69;98343.81;5035237;28;19940;-63
2023/07/17 09:05:45;;;;;;;;;;;;;;;23.67;42.29;98344.28;5026392;28;19929;-62
2023/07/17 09:08:34;;;;;;;;;;;;;;;23.73;41.64;98337.97;5027552;28;19925;-61
2023/07/17 09:11:23;;;;;;;;;;;;;;;23.75;41.73;98337.56;5025613;28;20036;-61
2023/07/17 09:14:12;;;;;;;;;;;;;;;23.90;41.47;98328.13;5018166;28;19925;-64
2023/07/17 09:17:02;;;;;;;;;;;;;;;24.14;41.89;98334.19;5026837;28;20562;-64
2023/07/17 09:19:52;;;;;;;;;;;;;;;24.09;42.24;98326.25;5026004;28;19925;-63
2023/07/17 09:22:40;;;;;;;;;;;;;;;24.12;41.01;98337.34;5026703;28;19935;-61
2023/07/17 09:25:31;;;;;;;;;;;;;;;24.26;42.55;98339.38;5026937;28;19925;-62
2023/07/17 09:28:19;;;;;;;;;;;;;;;24.37;41.06;98336.66;5026524;28;19925;-62
2023/07/17 09:31:07;;;;;;;;;;;;;;;24.19;40.92;98325.47;5022145;28;19933;-64
2023/07/17 09:33:58;;;;;;;;;;;;;;;24.24;40.96;98330.66;5023267;28;19928;-64
2023/07/17 09:36:49;;;;;;;;;;;;;;;24.31;41.53;98333.44;5025111;28;19929;-62
2023/07/17 09:39:38;;;;;;;;;;;;;;;24.41;41.63;98332.72;5027809;28;19933;-62
2023/07/17 09:42:26;;;;;;;;;;;;;;;24.51;41.58;98328.38;5024618;28;20408;-66
2023/07/17 09:45:15;;;;;;;;;;;;;;;24.54;40.65;98320.03;5026856;28;19925;-61
2023/07/17 09:48:06;;;;;;;;;;;;;;;24.54;41.72;98325.56;5016845;28;19925;-64
2023/07/17 09:50:57;;;;;;;;;;;;;;;24.60;39.72;98328.75;5027177;28;20386;-63
2023/07/17 09:53:46;;;;;;;;;;;;;;;24.53;39.38;98329.56;5014093;28;19932;-61
2023/07/17 09:56:34;;;;;;;;;;;;;;;24.49;39.34;98331.53;5019738;28;19925;-61
2023/07/17 09:59:24;;;;;;;;;;;;;;;24.54;41.11;98336.69;5017914;28;19925;-68
2023/07/17 10:02:14;;;;;;;;;;;;;;;24.68;40.26;98332.34;5023448;28;19925;-60
2023/07/17 10:05:05;;;;;;;;;;;;;;;24.68;39.95;98335.13;5021701;28;19925;-62
2023/07/17 10:07:54;;;;;;;;;;;;;;;24.55;41.39;98343.84;5016250;28;19925;-62
2023/07/17 10:10:43;;;;;;;;;;;;;;;24.62;41.98;98333.94;5025906;28;20294;-61
2023/07/17 10:13:31;;;;;;;;;;;;;;;24.58;40.00;98324.81;5022338;28;19926;-62
2023/07/17 10:16:19;;;;;;;;;;;;;;;24.54;40.61;98330.34;5025519;28;19931;-62
2023/07/17 10:19:08;;;;;;;;;;;;;;;24.39;40.09;98329.50;5011426;28;19929;-62
2023/07/17 10:21:57;;;;;;;;;;;;;;;24.38;39.90;98327.94;5019341;28;19925;-64
2023/07/17 10:24:47;;;;;;;;;;;;;;;24.33;39.53;98330.25;5022268;28;19929;-66
2023/07/17 10:27:38;;;;;;;;;;;;;;;24.38;39.61;98330.69;5020903;28;19931;-61
2023/07/17 10:30:30;;;;;;;;;;;;;;;24.22;38.75;98319.91;5025056;28;20375;-63
2023/07/17 10:33:19;;;;;;;;;;;;;;;24.27;40.16;98315.97;5022630;28;19929;-64
2023/07/17 10:36:08;;;;;;;;;;;;;;;24.35;39.21;98325.94;5021651;28;19936;-64
2023/07/17 10:38:56;;;;;;;;;;;;;;;24.23;38.48;98318.72;5023311;28;20398;-63
2023/07/17 10:41:47;;;;;;;;;;;;;;;24.26;39.12;98311.59;5022686;28;19929;-62
2023/07/17 10:44:36;;;;;;;;;;;;;;;24.28;39.62;98306.44;5016263;28;19925;-61
2023/07/17 10:47:24;;;;;;;;;;;;;;;24.30;38.61;98301.31;5023696;28;19934;-64
2023/07/17 10:50:13;;;;;;;;;;;;;;;24.28;39.00;98289.78;5025270;28;20390;-64
2023/07/17 10:53:02;;;;;;;;;;;;;;;24.42;40.48;98300.19;5024037;28;19975;-63
2023/07/17 10:55:51;;;;;;;;;;;;;;;24.45;38.14;98288.25;5024510;28;20390;-61
2023/07/17 10:58:41;;;;;;;;;;;;;;;24.42;38.51;98300.97;5010473;28;19935;-63
2023/07/17 11:01:30;;;;;;;;;;;;;;;24.30;38.87;98298.53;5016107;28;20656;-63
2023/07/17 11:04:19;;;;;;;;;;;;;;;24.27;38.78;98289.00;5024707;28;19937;-61
2023/07/17 11:07:08;;;;;;;;;;;;;;;24.22;38.34;98297.72;5018343;28;19988;-63
2023/07/17 11:09:56;;;;;;;;;;;;;;;24.22;38.82;98302.47;5028296;28;20334;-61
2023/07/17 11:12:44;;;;;;;;;;;;;;;24.17;39.16;98298.09;5029943;28;19929;-61
2023/07/17 11:15:34;;;;;;;;;;;;;;;24.16;38.46;98292.94;5029772;28;19932;-59
2023/07/17 11:18:22;;;;;;;;;;;;;;;24.22;38.87;98297.72;5023300;28;19925;-60
2023/07/17 11:21:11;;;;;;;;;;;;;;;24.23;39.29;98290.16;5027715;28;20018;-60
2023/07/17 11:24:01;;;;;;;;;;;;;;;24.39;38.26;98296.19;5023515;28;19936;-62
2023/07/17 11:26:49;;;;;;;;;;;;;;;24.48;39.17;98291.06;5024646;28;19929;-62
2023/07/17 11:29:39;;;;;;;;;;;;;;;24.43;39.77;98285.88;5029522;28;19929;-60
2023/07/17 11:32:29;;;;;;;;;;;;;;;24.41;38.07;98290.25;5028380;28;19983;-64
2023/07/17 11:35:19;;;;;;;;;;;;;;;24.42;36.90;98284.31;5026350;28;19936;-62
2023/07/17 11:38:07;;;;;;;;;;;;;;;24.49;36.59;98275.97;5029405;28;19929;-63
2023/07/17 11:40:56;;;;;;;;;;;;;;;24.59;36.75;98276.38;5029803;28;19929;-62
2023/07/17 11:43:45;;;;;;;;;;;;;;;24.63;38.12;98277.19;5024228;28;19925;-61
2023/07/17 11:46:33;;;;;;;;;;;;;;;24.67;37.08;98280.78;5027268;28;19925;-59
2023/07/17 11:49:24;;;;;;;;;;;;;;;24.66;37.44;98285.53;5021621;28;19935;-61
2023/07/17 11:52:17;;;;;;;;;;;;;;;24.68;38.32;98280.38;5020325;28;19929;-63
2023/07/17 11:55:08;;;;;;;;;;;;;;;24.67;37.88;98269.66;5019819;28;19929;-63
2023/07/17 11:57:56;;;;;;;;;;;;;;;24.69;36.52;98273.63;5023021;28;20590;-63
2023/07/17 12:00:53;;;;;;;;;;;;;;;24.72;36.99;98267.28;5022330;28;19996;-63
2023/07/17 12:03:44;;;;;;;;;;;;;;;24.73;36.71;98276.41;5027641;28;19925;-63
2023/07/17 12:06:35;;;;;;;;;;;;;;;24.76;36.33;98275.59;5024625;28;20309;-67
2023/07/17 12:09:23;;;;;;;;;;;;;;;24.68;35.44;98265.69;5028398;28;19929;-62
2023/07/17 12:12:11;;;;;;;;;;;;;;;24.64;35.64;98276.78;5023154;28;20389;-60
2023/07/17 12:15:00;;;;;;;;;;;;;;;24.67;36.39;98278.00;5023675;28;19929;-63
2023/07/17 12:17:48;;;;;;;;;;;;;;;24.67;37.42;98264.09;5027153;28;20302;-62
2023/07/17 12:20:37;;;;;;;;;;;;;;;24.58;36.84;98264.47;5027699;28;20051;-60
2023/07/17 12:23:27;;;;;;;;;;;;;;;24.52;35.80;98260.50;5024100;28;20554;-59
2023/07/17 12:26:15;;;;;;;;;;;;;;;24.52;36.03;98269.63;5027919;28;19925;-59
2023/07/17 12:29:03;;;;;;;;;;;;;;;24.56;35.77;98262.09;5032410;28;19932;-62
2023/07/17 12:31:52;;;;;;;;;;;;;;;24.74;35.65;98252.97;5018038;28;19980;-61
2023/07/17 12:34:40;;;;;;;;;;;;;;;24.73;36.13;98260.53;5024071;28;20595;-61
2023/07/17 12:37:30;;;;;;;;;;;;;;;24.80;35.30;98256.94;5021296;28;19929;-63
2023/07/17 12:40:20;;;;;;;;;;;;;;;24.80;34.32;98254.16;5022236;28;19929;-63
2023/07/17 12:43:12;;;;;;;;;;;;;;;24.74;35.85;98252.97;5016489;28;19930;-62
2023/07/17 12:46:00;;;;;;;;;;;;;;;24.67;34.92;98250.22;5011475;28;20426;-64
2023/07/17 12:48:49;;;;;;;;;;;;;;;24.60;35.72;98248.19;5015110;28;19929;-63
2023/07/17 12:51:37;;;;;;;;;;;;;;;24.51;37.11;98245.03;5016607;28;19925;-60
2023/07/17 12:54:25;;;;;;;;;;;;;;;24.51;36.53;98245.84;5020051;28;19929;-64
2023/07/17 12:57:14;;;;;;;;;;;;;;;24.51;35.71;98237.50;5021623;28;19929;-66
2023/07/17 13:00:03;;;;;;;;;;;;;;;24.53;36.49;98229.56;5025986;28;19926;-63
2023/07/17 13:02:52;;;;;;;;;;;;;;;24.71;36.88;98231.53;5035630;28;20012;-61
2023/07/17 13:05:41;;;;;;;;;;;;;;;24.68;35.34;98224.81;5036269;28;19928;-64
2023/07/17 13:08:29;;;;;;;;;;;;;;;24.84;36.44;98241.06;5022628;28;20035;-64
2023/07/17 13:11:18;;;;;;;;;;;;;;;24.81;34.73;98239.06;5016169;28;20018;-65
2023/07/17 13:14:09;;;;;;;;;;;;;;;24.71;36.82;98240.66;5010688;28;19933;-63
2023/07/17 13:16:58;;;;;;;;;;;;;;;24.68;38.06;98230.34;5014211;28;19925;-60
2023/07/17 13:19:47;;;;;;;;;;;;;;;24.67;36.18;98228.00;5020001;28;19929;-62
2023/07/17 13:22:35;;;;;;;;;;;;;;;24.65;35.23;98227.56;5025001;28;19932;-61
2023/07/17 13:25:24;;;;;;;;;;;;;;;24.69;36.91;98226.38;5021239;28;19955;-64
2023/07/17 13:28:12;;;;;;;;;;;;;;;24.72;37.53;98220.03;5009095;28;20012;-63
2023/07/17 13:31:02;;;;;;;;;;;;;;;24.83;35.78;98212.50;5019408;28;19929;-65
2023/07/17 13:33:57;;;;;;;;;;;;;;;24.86;42.30;98226.78;5024689;28;20000;-63
2023/07/17 13:36:45;;;;;;;;;;;;;;;24.93;38.61;98210.06;5016251;28;19936;-60
2023/07/17 13:39:33;;;;;;;;;;;;;;;24.98;37.49;98216.06;5019368;28;20400;-62
2023/07/17 13:42:22;;;;;;;;;;;;;;;24.95;36.02;98218.81;5020373;28;20660;-61
2023/07/17 13:45:10;;;;;;;;;;;;;;;24.87;35.60;98215.25;5023350;28;19932;-66
2023/07/17 13:48:00;;;;;;;;;;;;;;;24.81;36.18;98205.72;5019907;28;19952;-64
2023/07/17 13:50:48;;;;;;;;;;;;;;;24.82;35.28;98198.97;5020911;28;20040;-67
2023/07/17 13:53:37;;;;;;;;;;;;;;;24.81;36.39;98191.84;5025649;28;20298;-64
2023/07/17 13:56:25;;;;;;;;;;;;;;;24.86;34.91;98201.75;5025022;28;19929;-61
2023/07/17 13:59:16;;;;;;;;;;;;;;;24.86;35.09;98191.44;5024392;28;19964;-63
2023/07/17 14:02:05;;;;;;;;;;;;;;;24.90;35.70;98197.78;5014122;28;20436;-63
2023/07/17 14:04:55;;;;;;;;;;;;;;;24.94;35.18;98195.78;5018075;28;20079;-62
2023/07/17 14:07:44;;;;;;;;;;;;;;;24.85;36.26;98195.41;5024214;28;19929;-63
2023/07/17 14:10:32;;;;;;;;;;;;;;;24.91;34.68;98204.13;5022883;28;19929;-62
2023/07/17 14:13:21;;;;;;;;;;;;;;;25.01;34.62;98193.00;5021288;28;20129;-61
2023/07/17 14:16:09;;;;;;;;;;;;;;;24.93;35.32;98188.66;5018213;28;22010;-63
2023/07/17 14:18:58;;;;;;;;;;;;;;;25.15;34.07;98194.19;5027130;28;20022;-61
2023/07/17 14:21:47;;;;;;;;;;;;;;;25.22;33.99;98171.94;5024603;28;19929;-61
2023/07/17 14:24:36;;;;;;;;;;;;;;;25.41;34.04;98174.25;5024596;28;19936;-61
2023/07/17 14:27:24;;;;;;;;;;;;;;;25.41;33.62;98179.81;5025831;28;19929;-63
2023/07/17 14:30:13;;;;;;;;;;;;;;;25.43;34.10;98173.84;5025318;28;19936;-62
2023/07/17 14:33:04;;;;;;;;;;;;;;;25.31;35.46;98169.50;5033312;28;19929;-62
2023/07/17 14:35:52;;;;;;;;;;;;;;;25.30;34.65;98168.72;5023264;28;19929;-63
2023/07/17 14:38:42;;;;;;;;;;;;;;;25.35;33.70;98161.94;5035042;28;20306;-65
2023/07/17 14:41:30;;;;;;;;;;;;;;;25.32;33.41;98154.41;5025087;28;19929;-60